Log in Register

Login to your account

Username *
Password *
Remember Me

Create an account

Fields marked with an asterisk (*) are required.
Name *
Username *
Password *
Verify password *
Email *
Verify email *

Nous contacter

 Téléphone : +33 (0)4 79 54 41 81

Coordonnées détaillées et accès : cliquez ici

 
LFLB °C
    Ferienhaus Ostsee
[source: ADDS]
METAR
LFLB 302300Z AUTO VRB02KT 9999 OVC026 03/M00 Q1025 =
TAF LFLB 301400Z 3015/0115 02005KT 9999 OVC022 BECMG 3018/3021 NSC PROB40 TEMPO 3020/0104 3000 BR BECMG 0102/0104 BKN035 TEMPO 0104/0111 18010KT 4000 -RA BKN014 PROB40 TEMPO 0112/0115 4000 -SHRA FEW020TCU
TAF
TAF LFLB 301400Z 3015/0115 02005KT 9999 OVC022 BECMG 3018/3021 NSC PROB40 TEMPO 3020/0104 3000 BR BECMG 0102/0104 BKN035 TEMPO 0104/0111 18010KT 4000 -RA BKN014 PROB40 TEMPO 0112/0115 4000 -SHRA FEW020TCU =
SR / SS: 06:57 / 15:54 UTC (Lever/Coucher du soleil le 2020-12-01)
JSN Boot template designed by JoomlaShine.com